Time;durP1;ratioP1;P1;durP2;ratioP2;P2;SDS_P1;SDS_P2;PMS_P1;PMS_P2;Temp;Humidity;BMP_temperature;BMP_pressure;BME280_temperature;BME280_humidity;BME280_pressure;Samples;Min_cycle;Max_cycle;Signal;HPM_P1;HPM_P2
2021/06/19 00:01:36;;;;;;;9.88;4.63;;;;;;;;;;5013551;28;20041;-65
2021/06/19 00:04:03;;;;;;;6.68;4.53;;;;;;;;;;5031184;28;20028;-65
2021/06/19 00:06:30;;;;;;;7.88;4.60;;;;;;;;;;5031788;28;20104;-68
2021/06/19 00:08:56;;;;;;;8.27;4.35;;;;;;;;;;5030363;28;20076;-67
2021/06/19 00:11:22;;;;;;;6.95;4.15;;;;;;;;;;5030804;28;20026;-70
2021/06/19 00:13:48;;;;;;;13.10;4.30;;;;;;;;;;5030504;28;20053;-67
2021/06/19 00:16:14;;;;;;;7.07;4.47;;;;;;;;;;5030852;28;20042;-69
2021/06/19 00:18:40;;;;;;;6.35;4.47;;;;;;;;;;5031636;28;20383;-67
2021/06/19 00:21:09;;;;;;;8.32;4.35;;;;;;;;;;5030030;28;20079;-66
2021/06/19 00:23:35;;;;;;;6.78;4.40;;;;;;;;;;5031279;28;20067;-70
2021/06/19 00:26:01;;;;;;;11.68;4.63;;;;;;;;;;5030722;28;20101;-69
2021/06/19 00:28:27;;;;;;;9.30;4.43;;;;;;;;;;5031324;28;20475;-66
2021/06/19 00:30:53;;;;;;;6.88;4.35;;;;;;;;;;5031372;28;20029;-68
2021/06/19 00:33:19;;;;;;;7.30;4.03;;;;;;;;;;5028169;28;20119;-66
2021/06/19 00:35:45;;;;;;;7.85;4.40;;;;;;;;;;5030380;28;20435;-67
2021/06/19 00:38:11;;;;;;;11.95;4.93;;;;;;;;;;5029937;28;20021;-69
2021/06/19 00:40:40;;;;;;;16.83;4.68;;;;;;;;;;5033838;28;20116;-65
2021/06/19 00:43:06;;;;;;;12.02;4.60;;;;;;;;;;5032845;28;20017;-69
2021/06/19 00:45:33;;;;;;;8.95;4.50;;;;;;;;;;5013879;28;20038;-70
2021/06/19 00:48:00;;;;;;;10.85;4.63;;;;;;;;;;5015068;28;20455;-66
2021/06/19 00:50:26;;;;;;;7.75;4.40;;;;;;;;;;5015136;28;20040;-66
2021/06/19 00:52:53;;;;;;;8.02;3.90;;;;;;;;;;5014042;28;20056;-64
2021/06/19 00:55:20;;;;;;;9.18;4.53;;;;;;;;;;5015215;28;20033;-69
2021/06/19 00:57:46;;;;;;;7.78;4.80;;;;;;;;;;5014705;28;20022;-70
2021/06/19 01:00:13;;;;;;;5.82;4.20;;;;;;;;;;5014443;28;20084;-68
2021/06/19 01:02:39;;;;;;;12.75;4.57;;;;;;;;;;5014874;28;20034;-69
2021/06/19 01:05:07;;;;;;;7.13;4.63;;;;;;;;;;5011954;28;20033;-68
2021/06/19 01:07:33;;;;;;;9.38;4.80;;;;;;;;;;5014725;28;20104;-69
2021/06/19 01:09:59;;;;;;;8.80;4.72;;;;;;;;;;5014686;28;20064;-70
2021/06/19 01:12:25;;;;;;;10.05;4.03;;;;;;;;;;5014470;28;20037;-71
2021/06/19 01:14:52;;;;;;;7.38;4.20;;;;;;;;;;5013765;28;20030;-70
2021/06/19 01:17:19;;;;;;;10.98;4.43;;;;;;;;;;5014385;28;20034;-72
2021/06/19 01:19:45;;;;;;;5.82;4.03;;;;;;;;;;5014569;28;20030;-66
2021/06/19 01:22:12;;;;;;;8.25;4.45;;;;;;;;;;5013593;28;20399;-67
2021/06/19 01:24:38;;;;;;;9.93;4.45;;;;;;;;;;5012175;28;20038;-66
2021/06/19 01:27:04;;;;;;;9.48;5.13;;;;;;;;;;5014533;28;20033;-71
2021/06/19 01:29:30;;;;;;;6.47;4.25;;;;;;;;;;5014684;28;20495;-67
2021/06/19 01:31:56;;;;;;;7.97;4.35;;;;;;;;;;4994826;28;20812;-69
2021/06/19 01:34:22;;;;;;;7.80;4.50;;;;;;;;;;5014357;28;20034;-69
2021/06/19 01:36:48;;;;;;;8.43;4.32;;;;;;;;;;5013042;28;20030;-66
2021/06/19 01:39:14;;;;;;;8.48;4.43;;;;;;;;;;5014151;28;20022;-69
2021/06/19 01:41:40;;;;;;;6.90;4.50;;;;;;;;;;5013979;28;20037;-66
2021/06/19 01:44:08;;;;;;;8.75;4.45;;;;;;;;;;5013780;28;20046;-69
2021/06/19 01:46:35;;;;;;;6.40;4.05;;;;;;;;;;5013761;28;20472;-66
2021/06/19 01:49:02;;;;;;;9.07;4.30;;;;;;;;;;5006375;28;20113;-65
2021/06/19 01:51:28;;;;;;;5.10;4.10;;;;;;;;;;5013021;28;20438;-67
2021/06/19 01:53:54;;;;;;;10.05;4.30;;;;;;;;;;5013742;28;20022;-66
2021/06/19 01:56:21;;;;;;;7.07;4.47;;;;;;;;;;5014061;28;20138;-70
2021/06/19 01:58:47;;;;;;;11.48;4.43;;;;;;;;;;5011607;28;20026;-70
2021/06/19 02:01:14;;;;;;;6.00;4.25;;;;;;;;;;5013857;28;20026;-69
2021/06/19 02:03:41;;;;;;;7.32;4.60;;;;;;;;;;5013117;28;20033;-69
2021/06/19 02:06:07;;;;;;;6.57;4.45;;;;;;;;;;5013649;28;20494;-66
2021/06/19 02:08:34;;;;;;;11.63;4.40;;;;;;;;;;5012197;28;20495;-69
2021/06/19 02:11:00;;;;;;;6.95;4.68;;;;;;;;;;5013721;28;20038;-70
2021/06/19 02:13:27;;;;;;;6.82;4.60;;;;;;;;;;5013088;28;20026;-66
2021/06/19 02:15:53;;;;;;;8.90;4.78;;;;;;;;;;5013173;28;20092;-66
2021/06/19 02:18:19;;;;;;;8.95;4.35;;;;;;;;;;5013216;28;20060;-69
2021/06/19 02:20:51;;;;;;;7.13;4.47;;;;;;;;;;5012821;28;20025;-66
2021/06/19 02:23:17;;;;;;;9.15;4.40;;;;;;;;;;5011415;28;20029;-72
2021/06/19 02:25:46;;;;;;;5.45;4.55;;;;;;;;;;5008550;28;20054;-70
2021/06/19 02:28:12;;;;;;;9.32;4.88;;;;;;;;;;5012995;28;20045;-65
2021/06/19 02:30:39;;;;;;;7.20;4.50;;;;;;;;;;5012499;28;20036;-66
2021/06/19 02:33:06;;;;;;;9.48;4.35;;;;;;;;;;5012797;28;20416;-67
2021/06/19 02:35:34;;;;;;;6.25;4.20;;;;;;;;;;5012794;28;20490;-70
2021/06/19 02:38:00;;;;;;;7.53;5.00;;;;;;;;;;5013225;28;20036;-70
2021/06/19 02:40:26;;;;;;;13.43;4.85;;;;;;;;;;5012570;28;20033;-66
2021/06/19 02:42:53;;;;;;;9.68;4.57;;;;;;;;;;5013041;28;20091;-69
2021/06/19 02:45:19;;;;;;;6.80;4.50;;;;;;;;;;5031983;28;20050;-70
2021/06/19 02:47:46;;;;;;;6.38;4.35;;;;;;;;;;5032535;28;20026;-69
2021/06/19 02:50:13;;;;;;;8.57;4.78;;;;;;;;;;5032380;28;20037;-67
2021/06/19 02:52:43;;;;;;;6.95;4.45;;;;;;;;;;5031876;28;20029;-65
2021/06/19 02:55:11;;;;;;;6.28;4.40;;;;;;;;;;5030962;28;20403;-68
2021/06/19 02:57:37;;;;;;;8.45;4.72;;;;;;;;;;5032053;28;20482;-67
2021/06/19 03:00:07;;;;;;;6.43;4.45;;;;;;;;;;5026045;28;20021;-68
2021/06/19 03:02:33;;;;;;;8.38;4.63;;;;;;;;;;5029408;28;20036;-66
2021/06/19 03:04:59;;;;;;;11.38;4.60;;;;;;;;;;5031724;28;20028;-70
2021/06/19 03:07:25;;;;;;;7.68;4.55;;;;;;;;;;5032469;28;20541;-69
2021/06/19 03:09:52;;;;;;;10.90;4.60;;;;;;;;;;5031694;28;20495;-68
2021/06/19 03:12:18;;;;;;;12.70;5.85;;;;;;;;;;5031628;28;20109;-70
2021/06/19 03:14:44;;;;;;;7.30;4.50;;;;;;;;;;5031613;28;20026;-69
2021/06/19 03:17:10;;;;;;;8.45;4.82;;;;;;;;;;5032488;28;20029;-70
2021/06/19 03:19:37;;;;;;;9.52;5.75;;;;;;;;;;5027928;28;20466;-65
2021/06/19 03:22:03;;;;;;;8.45;4.72;;;;;;;;;;5031603;28;20178;-69
2021/06/19 03:24:29;;;;;;;10.80;4.78;;;;;;;;;;5031591;28;20049;-66
2021/06/19 03:26:55;;;;;;;10.73;5.05;;;;;;;;;;5022213;28;20025;-70
2021/06/19 03:29:22;;;;;;;9.23;5.03;;;;;;;;;;5032089;28;20033;-65
2021/06/19 03:31:48;;;;;;;13.48;6.03;;;;;;;;;;5031703;28;20025;-70
2021/06/19 03:34:14;;;;;;;10.15;5.00;;;;;;;;;;5031257;28;20113;-70
2021/06/19 03:36:40;;;;;;;15.50;4.80;;;;;;;;;;5031741;28;20087;-66
2021/06/19 03:39:06;;;;;;;11.95;4.93;;;;;;;;;;5031791;28;20053;-68
2021/06/19 03:41:32;;;;;;;10.95;5.22;;;;;;;;;;5023247;28;20037;-65
2021/06/19 03:43:58;;;;;;;10.00;4.80;;;;;;;;;;5022659;28;20041;-67
2021/06/19 03:46:24;;;;;;;10.90;5.45;;;;;;;;;;5011988;28;20079;-73
2021/06/19 03:48:50;;;;;;;13.35;5.38;;;;;;;;;;5012111;28;20034;-68
2021/06/19 03:51:16;;;;;;;13.80;6.07;;;;;;;;;;5011957;28;20026;-67
2021/06/19 03:53:42;;;;;;;9.82;5.55;;;;;;;;;;5011625;28;20041;-69
2021/06/19 03:56:08;;;;;;;9.00;5.20;;;;;;;;;;5011831;28;20112;-69
2021/06/19 03:58:34;;;;;;;7.30;4.82;;;;;;;;;;5011630;28;20064;-67
2021/06/19 04:01:00;;;;;;;9.02;5.10;;;;;;;;;;5011259;28;20034;-66
2021/06/19 04:03:26;;;;;;;10.15;5.30;;;;;;;;;;5008642;28;20025;-67
2021/06/19 04:05:52;;;;;;;8.23;4.90;;;;;;;;;;5011263;28;20044;-67
2021/06/19 04:08:18;;;;;;;10.23;5.13;;;;;;;;;;5011508;28;20026;-67
2021/06/19 04:10:45;;;;;;;8.25;5.15;;;;;;;;;;5011465;28;20034;-70
2021/06/19 04:13:11;;;;;;;6.90;4.90;;;;;;;;;;5009883;28;20041;-65
2021/06/19 04:15:37;;;;;;;8.35;4.57;;;;;;;;;;5015455;28;20065;-69
2021/06/19 04:18:03;;;;;;;9.75;5.07;;;;;;;;;;5015662;28;20036;-68
2021/06/19 04:20:29;;;;;;;7.47;5.00;;;;;;;;;;5015515;28;20026;-65
2021/06/19 04:22:55;;;;;;;7.57;5.20;;;;;;;;;;5010876;28;20392;-65
2021/06/19 04:25:21;;;;;;;9.32;5.28;;;;;;;;;;5003230;28;20030;-68
2021/06/19 04:27:54;;;;;;;8.63;5.10;;;;;;;;;;4998243;28;20022;-65
2021/06/19 04:30:23;;;;;;;8.80;5.40;;;;;;;;;;5000704;28;20064;-65
2021/06/19 04:32:50;;;;;;;8.32;5.50;;;;;;;;;;4997155;28;20023;-68
2021/06/19 04:35:16;;;;;;;8.75;5.20;;;;;;;;;;4998292;28;20046;-66
2021/06/19 04:37:45;;;;;;;6.70;5.03;;;;;;;;;;4990967;28;20450;-69
2021/06/19 04:40:22;;;;;;;10.45;5.10;;;;;;;;;;5014237;28;20562;-68
2021/06/19 04:43:04;;;;;;;9.23;5.35;;;;;;;;;;5009799;28;20038;-66
2021/06/19 04:45:30;;;;;;;13.95;5.18;;;;;;;;;;5011394;28;20300;-69
2021/06/19 04:47:57;;;;;;;6.47;4.60;;;;;;;;;;5012969;28;20022;-66
2021/06/19 04:50:23;;;;;;;8.68;5.28;;;;;;;;;;5015408;28;20112;-65
2021/06/19 04:52:49;;;;;;;9.90;5.10;;;;;;;;;;5013195;28;20382;-67
2021/06/19 04:55:16;;;;;;;12.18;5.72;;;;;;;;;;5014412;28;20053;-68
2021/06/19 04:57:43;;;;;;;12.15;5.40;;;;;;;;;;5014544;28;20050;-66
2021/06/19 05:00:10;;;;;;;7.07;4.95;;;;;;;;;;5012183;28;20029;-66
2021/06/19 05:02:37;;;;;;;9.75;5.20;;;;;;;;;;5011237;28;20105;-65
2021/06/19 05:05:03;;;;;;;7.63;4.82;;;;;;;;;;5012006;28;20153;-70
2021/06/19 05:07:29;;;;;;;9.82;5.43;;;;;;;;;;5012933;28;20022;-68
2021/06/19 05:09:55;;;;;;;8.07;5.43;;;;;;;;;;5005141;28;20042;-68
2021/06/19 05:12:21;;;;;;;8.40;5.15;;;;;;;;;;4997211;28;20064;-74
2021/06/19 05:14:47;;;;;;;9.40;4.90;;;;;;;;;;4988503;28;20637;-68
2021/06/19 05:17:13;;;;;;;9.52;5.18;;;;;;;;;;5011070;28;20030;-81
2021/06/19 05:19:39;;;;;;;9.98;4.78;;;;;;;;;;5007105;28;20112;-75
2021/06/19 05:22:05;;;;;;;7.85;5.32;;;;;;;;;;5012820;28;20033;-64
2021/06/19 05:24:31;;;;;;;9.70;5.80;;;;;;;;;;5012890;28;20037;-80
2021/06/19 05:26:58;;;;;;;8.52;5.85;;;;;;;;;;5008569;28;20025;-71
2021/06/19 05:29:24;;;;;;;8.00;5.00;;;;;;;;;;5011578;28;20131;-63
2021/06/19 05:31:50;;;;;;;9.63;5.40;;;;;;;;;;5008735;28;20022;-63
2021/06/19 05:34:16;;;;;;;17.77;6.00;;;;;;;;;;5012699;28;20017;-65
2021/06/19 05:36:42;;;;;;;9.98;5.30;;;;;;;;;;5011259;28;20396;-68
2021/06/19 05:39:08;;;;;;;6.63;5.10;;;;;;;;;;5009988;28;20025;-67
2021/06/19 05:41:35;;;;;;;11.10;5.15;;;;;;;;;;5008629;28;20029;-68
2021/06/19 05:44:02;;;;;;;8.93;5.13;;;;;;;;;;5009673;28;20077;-68
2021/06/19 05:46:28;;;;;;;10.00;4.90;;;;;;;;;;5011448;28;20022;-65
2021/06/19 05:48:57;;;;;;;12.85;5.75;;;;;;;;;;5011831;28;20103;-67
2021/06/19 05:51:23;;;;;;;11.88;5.32;;;;;;;;;;5015899;28;20605;-74
2021/06/19 05:53:50;;;;;;;10.65;5.47;;;;;;;;;;4993818;28;20482;-66
2021/06/19 05:56:16;;;;;;;11.13;5.55;;;;;;;;;;5013712;28;20519;-68
2021/06/19 05:58:42;;;;;;;9.73;5.15;;;;;;;;;;5008468;28;20029;-68
2021/06/19 06:01:08;;;;;;;9.50;5.57;;;;;;;;;;5007589;28;20479;-69
2021/06/19 06:03:34;;;;;;;10.30;5.10;;;;;;;;;;5011162;28;20423;-68
2021/06/19 06:06:00;;;;;;;10.05;5.15;;;;;;;;;;5013119;28;20495;-66
2021/06/19 06:08:26;;;;;;;14.73;4.90;;;;;;;;;;5015090;28;20034;-66
2021/06/19 06:10:53;;;;;;;9.50;4.80;;;;;;;;;;5012960;28;20021;-66
2021/06/19 06:13:19;;;;;;;9.73;4.80;;;;;;;;;;5010221;28;20030;-66
2021/06/19 06:15:45;;;;;;;9.38;5.20;;;;;;;;;;5012188;28;20074;-66
2021/06/19 06:18:11;;;;;;;9.60;4.88;;;;;;;;;;5011722;28;20038;-67
2021/06/19 06:20:37;;;;;;;7.90;5.15;;;;;;;;;;5008312;28;20546;-67
2021/06/19 06:23:03;;;;;;;11.50;5.53;;;;;;;;;;5012351;28;20455;-66
2021/06/19 06:25:30;;;;;;;8.73;4.70;;;;;;;;;;5011791;28;20384;-67
2021/06/19 06:27:56;;;;;;;8.20;4.60;;;;;;;;;;5009876;28;20032;-67
2021/06/19 06:30:22;;;;;;;9.30;4.63;;;;;;;;;;5013218;28;20056;-67
2021/06/19 06:32:48;;;;;;;12.75;5.43;;;;;;;;;;5008388;28;20049;-67
2021/06/19 06:35:14;;;;;;;10.23;5.30;;;;;;;;;;5010704;28;20084;-68
2021/06/19 06:37:41;;;;;;;7.82;4.95;;;;;;;;;;5011232;28;20041;-67
2021/06/19 06:40:08;;;;;;;10.57;4.53;;;;;;;;;;5011720;28;20026;-67
2021/06/19 06:42:34;;;;;;;11.38;4.90;;;;;;;;;;5013756;28;20121;-66
2021/06/19 06:45:00;;;;;;;12.88;4.57;;;;;;;;;;5014013;28;20053;-67
2021/06/19 06:47:26;;;;;;;8.60;4.72;;;;;;;;;;5011786;28;20034;-67
2021/06/19 06:49:53;;;;;;;9.60;5.22;;;;;;;;;;5011640;28;20080;-67
2021/06/19 06:52:19;;;;;;;9.18;4.60;;;;;;;;;;5011604;28;20116;-67
2021/06/19 06:54:45;;;;;;;11.38;5.07;;;;;;;;;;5011667;28;20018;-67
2021/06/19 06:57:11;;;;;;;8.93;5.07;;;;;;;;;;5011552;28;20065;-66
2021/06/19 06:59:37;;;;;;;10.48;5.15;;;;;;;;;;5010781;28;20022;-67
2021/06/19 07:02:06;;;;;;;8.63;4.80;;;;;;;;;;5010910;28;20030;-68
2021/06/19 07:04:32;;;;;;;9.10;4.82;;;;;;;;;;5011213;28;20486;-67
2021/06/19 07:06:59;;;;;;;7.50;4.80;;;;;;;;;;5010843;28;20054;-67
2021/06/19 07:09:25;;;;;;;10.38;4.97;;;;;;;;;;5010303;28;20112;-66
2021/06/19 07:11:51;;;;;;;6.82;4.75;;;;;;;;;;5011437;28;20083;-66
2021/06/19 07:14:17;;;;;;;6.93;4.80;;;;;;;;;;5015683;28;20037;-67
2021/06/19 07:16:43;;;;;;;8.30;4.80;;;;;;;;;;5013909;28;20092;-67
2021/06/19 07:19:09;;;;;;;11.52;4.72;;;;;;;;;;5010634;28;20026;-66
2021/06/19 07:21:35;;;;;;;7.60;4.40;;;;;;;;;;5005039;28;20064;-67
2021/06/19 07:24:01;;;;;;;7.75;4.72;;;;;;;;;;5012994;28;20032;-68
2021/06/19 07:26:27;;;;;;;9.95;4.90;;;;;;;;;;5006887;28;20112;-68
2021/06/19 07:28:53;;;;;;;8.13;4.97;;;;;;;;;;5010610;28;20025;-67
2021/06/19 07:31:19;;;;;;;8.25;4.28;;;;;;;;;;4991944;28;20030;-68
2021/06/19 07:33:45;;;;;;;6.07;4.82;;;;;;;;;;5011742;28;20018;-67
2021/06/19 07:36:11;;;;;;;13.13;4.72;;;;;;;;;;5010974;28;20387;-68
2021/06/19 07:38:38;;;;;;;9.98;4.53;;;;;;;;;;5012567;28;20021;-69
2021/06/19 07:41:04;;;;;;;7.45;4.05;;;;;;;;;;5020412;28;20022;-69
2021/06/19 07:43:30;;;;;;;8.68;4.50;;;;;;;;;;5008420;28;20069;-70
2021/06/19 07:46:00;;;;;;;8.52;4.53;;;;;;;;;;5014369;28;20735;-69
2021/06/19 07:48:27;;;;;;;7.85;4.10;;;;;;;;;;5013331;28;20483;-69
2021/06/19 07:50:53;;;;;;;9.27;4.07;;;;;;;;;;5016871;28;20045;-69
2021/06/19 07:53:19;;;;;;;9.30;4.20;;;;;;;;;;5011180;28;20026;-68
2021/06/19 07:55:45;;;;;;;7.57;4.13;;;;;;;;;;5015832;28;20033;-69
2021/06/19 07:58:11;;;;;;;8.85;4.00;;;;;;;;;;5007157;28;20066;-68
2021/06/19 08:00:37;;;;;;;8.75;4.25;;;;;;;;;;5010609;28;20050;-69
2021/06/19 08:03:03;;;;;;;7.97;4.07;;;;;;;;;;5003528;28;20033;-66
2021/06/19 08:05:29;;;;;;;6.07;4.40;;;;;;;;;;5010371;28;20030;-67
2021/06/19 08:07:56;;;;;;;9.60;4.70;;;;;;;;;;5008891;28;20661;-68
2021/06/19 08:10:22;;;;;;;13.02;4.75;;;;;;;;;;5007777;28;20018;-67
2021/06/19 08:12:50;;;;;;;8.57;4.30;;;;;;;;;;5008767;28;20045;-69
2021/06/19 08:15:16;;;;;;;8.85;4.38;;;;;;;;;;5007153;28;20411;-72
2021/06/19 08:17:42;;;;;;;9.02;4.55;;;;;;;;;;4991943;28;20026;-66
2021/06/19 08:20:09;;;;;;;12.93;4.60;;;;;;;;;;5006010;28;20117;-67
2021/06/19 08:22:35;;;;;;;8.98;4.65;;;;;;;;;;5008535;28;20054;-66
2021/06/19 08:25:02;;;;;;;6.40;4.45;;;;;;;;;;5009978;28;20061;-66
2021/06/19 08:27:28;;;;;;;9.73;4.30;;;;;;;;;;5009242;28;20034;-67
2021/06/19 08:29:54;;;;;;;11.32;4.80;;;;;;;;;;5002511;28;20054;-69
2021/06/19 08:32:20;;;;;;;7.28;4.38;;;;;;;;;;5006986;28;20034;-69
2021/06/19 08:34:47;;;;;;;9.98;4.90;;;;;;;;;;5005470;28;20033;-69
2021/06/19 08:37:13;;;;;;;8.82;4.70;;;;;;;;;;5011220;28;20073;-64
2021/06/19 08:39:39;;;;;;;9.43;4.70;;;;;;;;;;5010449;28;20026;-67
2021/06/19 08:42:06;;;;;;;12.32;4.20;;;;;;;;;;5015052;28;20026;-73
2021/06/19 08:44:32;;;;;;;34.53;5.60;;;;;;;;;;5010487;28;20050;-68
2021/06/19 08:46:58;;;;;;;16.08;5.40;;;;;;;;;;5009731;28;20026;-73
2021/06/19 08:49:25;;;;;;;11.60;4.88;;;;;;;;;;5009336;28;20105;-69
2021/06/19 08:51:56;;;;;;;13.25;4.97;;;;;;;;;;5006078;28;20042;-64
2021/06/19 08:54:23;;;;;;;11.50;4.80;;;;;;;;;;5008106;28;20025;-68
2021/06/19 08:56:49;;;;;;;8.48;4.80;;;;;;;;;;5003264;28;20084;-70
2021/06/19 08:59:15;;;;;;;13.18;4.55;;;;;;;;;;5007236;28;20049;-70
2021/06/19 09:01:42;;;;;;;12.75;4.75;;;;;;;;;;5004619;28;20033;-65
2021/06/19 09:04:09;;;;;;;11.20;5.05;;;;;;;;;;5013262;28;20033;-69
2021/06/19 09:06:39;;;;;;;21.73;5.38;;;;;;;;;;5013628;28;20030;-67
2021/06/19 09:09:09;;;;;;;10.73;5.20;;;;;;;;;;5008233;28;20395;-69
2021/06/19 09:11:39;;;;;;;8.80;4.63;;;;;;;;;;5011763;28;20472;-69
2021/06/19 09:14:07;;;;;;;8.27;4.68;;;;;;;;;;5014535;28;20465;-68
2021/06/19 09:16:33;;;;;;;13.35;4.75;;;;;;;;;;5008391;28;20121;-67
2021/06/19 09:18:59;;;;;;;6.60;4.80;;;;;;;;;;5006836;28;20029;-67
2021/06/19 09:21:36;;;;;;;8.65;4.40;;;;;;;;;;5005209;28;20037;-65
2021/06/19 09:24:02;;;;;;;12.45;4.63;;;;;;;;;;5011185;28;20497;-68
2021/06/19 09:26:33;;;;;;;7.65;4.60;;;;;;;;;;5013793;28;20022;-67
2021/06/19 09:29:04;;;;;;;10.52;4.80;;;;;;;;;;5013980;28;20384;-67
2021/06/19 09:31:37;;;;;;;14.90;5.28;;;;;;;;;;5012639;28;20037;-67
2021/06/19 09:34:13;;;;;;;11.95;4.60;;;;;;;;;;5008965;28;20112;-70
2021/06/19 09:36:43;;;;;;;12.27;4.60;;;;;;;;;;5006423;28;20038;-68
2021/06/19 09:39:10;;;;;;;11.82;4.60;;;;;;;;;;5008065;28;20411;-67
2021/06/19 09:42:05;;;;;;;10.75;4.72;;;;;;;;;;5005924;28;20030;-73
2021/06/19 09:44:42;;;;;;;31.05;5.47;;;;;;;;;;4934647;29;20055;-73
2021/06/19 09:47:09;;;;;;;19.00;4.95;;;;;;;;;;4925298;29;20382;-69
2021/06/19 09:49:41;;;;;;;15.23;5.53;;;;;;;;;;4928516;29;20126;-65
2021/06/19 09:52:08;;;;;;;28.27;5.07;;;;;;;;;;4929298;29;20035;-77
2021/06/19 09:54:40;;;;;;;15.13;4.18;;;;;;;;;;4922914;29;20107;-76
2021/06/19 09:57:12;;;;;;;10.20;4.60;;;;;;;;;;4923151;29;20621;-67
2021/06/19 09:59:39;;;;;;;8.25;4.32;;;;;;;;;;4922258;29;20107;-65
2021/06/19 10:02:16;;;;;;;8.60;4.07;;;;;;;;;;4932947;29;20036;-63
2021/06/19 10:04:42;;;;;;;7.38;3.83;;;;;;;;;;4938778;29;20031;-85
2021/06/19 10:07:08;;;;;;;10.77;4.22;;;;;;;;;;4937568;29;20501;-81
2021/06/19 10:09:35;;;;;;;8.32;3.80;;;;;;;;;;4933390;29;20039;-69
2021/06/19 10:12:04;;;;;;;17.63;4.30;;;;;;;;;;4932380;29;20038;-66
2021/06/19 10:14:30;;;;;;;8.02;3.92;;;;;;;;;;4939920;29;20061;-69
2021/06/19 10:16:57;;;;;;;13.27;4.10;;;;;;;;;;4936796;29;20449;-71
2021/06/19 10:19:25;;;;;;;11.27;4.45;;;;;;;;;;4937303;29;20036;-77
2021/06/19 10:21:52;;;;;;;9.13;4.15;;;;;;;;;;4992846;28;20057;-63
2021/06/19 10:24:19;;;;;;;10.93;4.18;;;;;;;;;;5015987;28;20030;-70
2021/06/19 10:26:45;;;;;;;8.68;3.92;;;;;;;;;;5016524;28;20519;-63
2021/06/19 10:29:12;;;;;;;12.52;4.40;;;;;;;;;;5014406;28;20041;-69
2021/06/19 10:31:42;;;;;;;11.15;4.20;;;;;;;;;;5012607;28;20411;-63
2021/06/19 10:34:38;;;;;;;10.60;4.25;;;;;;;;;;5017857;28;20045;-69
2021/06/19 10:37:08;;;;;;;11.88;4.47;;;;;;;;;;4936214;29;20047;-69
2021/06/19 10:39:39;;;;;;;12.18;3.80;;;;;;;;;;4943336;29;20036;-66
2021/06/19 10:42:05;;;;;;;12.07;4.30;;;;;;;;;;4938021;29;20094;-73
2021/06/19 10:44:49;;;;;;;6.65;3.70;;;;;;;;;;4934241;29;20054;-76
2021/06/19 10:47:16;;;;;;;8.07;3.85;;;;;;;;;;4932841;29;20118;-71
2021/06/19 10:49:43;;;;;;;6.25;4.03;;;;;;;;;;4940443;29;20032;-69
2021/06/19 10:52:25;;;;;;;9.68;3.80;;;;;;;;;;4933802;29;20039;-70
2021/06/19 10:55:17;;;;;;;13.82;4.20;;;;;;;;;;4932788;29;20035;-69
2021/06/19 10:57:56;;;;;;;10.93;4.50;;;;;;;;;;4930941;29;20046;-71
2021/06/19 11:00:25;;;;;;;6.32;3.58;;;;;;;;;;4929114;29;20083;-71
2021/06/19 11:02:52;;;;;;;12.00;4.15;;;;;;;;;;4934607;29;20035;-73
2021/06/19 11:05:41;;;;;;;7.60;3.90;;;;;;;;;;4934312;29;20445;-67
2021/06/19 11:08:08;;;;;;;11.48;4.00;;;;;;;;;;4925703;29;20024;-75
2021/06/19 11:10:46;;;;;;;13.88;3.97;;;;;;;;;;4938189;29;20027;-70
2021/06/19 11:13:28;;;;;;;12.65;4.05;;;;;;;;;;4962591;28;20046;-71
2021/06/19 11:15:58;;;;;;;8.55;3.78;;;;;;;;;;5011887;28;20037;-71
2021/06/19 11:18:42;;;;;;;9.30;3.88;;;;;;;;;;5011835;28;20022;-74
2021/06/19 11:21:17;;;;;;;8.85;4.07;;;;;;;;;;5011228;28;20103;-71
2021/06/19 11:24:02;;;;;;;7.95;3.95;;;;;;;;;;5010461;28;20041;-69
2021/06/19 11:27:08;;;;;;;8.85;3.88;;;;;;;;;;5011781;28;20037;-69
2021/06/19 11:29:40;;;;;;;6.18;3.38;;;;;;;;;;5005876;28;20053;-74
2021/06/19 11:32:06;;;;;;;;;;;;;;;;;;5011130;28;20033;-66
2021/06/19 11:34:41;;;;;;;7.47;3.80;;;;;;;;;;5010188;28;20295;-67
2021/06/19 11:37:07;;;;;;;7.00;3.67;;;;;;;;;;5011405;28;20095;-70
2021/06/19 11:39:34;;;;;;;7.90;3.88;;;;;;;;;;5012052;28;20053;-70
2021/06/19 11:42:01;;;;;;;5.82;3.50;;;;;;;;;;5010900;28;20041;-67
2021/06/19 11:44:33;;;;;;;8.35;3.80;;;;;;;;;;5023469;28;20038;-67
2021/06/19 11:47:05;;;;;;;6.47;3.97;;;;;;;;;;5031555;28;20025;-71
2021/06/19 11:49:36;;;;;;;11.38;3.60;;;;;;;;;;5030550;28;20438;-69
2021/06/19 11:52:03;;;;;;;8.90;4.00;;;;;;;;;;5031524;28;20053;-67
2021/06/19 11:54:29;;;;;;;9.00;3.65;;;;;;;;;;5030909;28;20033;-70
2021/06/19 11:56:55;;;;;;;15.43;4.15;;;;;;;;;;5030900;28;20036;-64
2021/06/19 11:59:22;;;;;;;7.93;3.63;;;;;;;;;;5031017;28;20024;-70
2021/06/19 12:01:49;;;;;;;7.03;3.70;;;;;;;;;;5031483;28;20176;-72
2021/06/19 12:04:15;;;;;;;13.70;4.05;;;;;;;;;;5027548;28;20083;-66
2021/06/19 12:06:43;;;;;;;6.43;3.60;;;;;;;;;;5030811;28;20109;-71
2021/06/19 12:09:10;;;;;;;10.77;4.10;;;;;;;;;;5013710;28;20103;-70
2021/06/19 12:11:37;;;;;;;5.82;3.90;;;;;;;;;;5030968;28;20029;-71
2021/06/19 12:14:21;;;;;;;7.10;3.83;;;;;;;;;;5031085;28;20537;-71
2021/06/19 12:16:50;;;;;;;7.88;3.47;;;;;;;;;;5030018;28;20175;-68
2021/06/19 12:19:17;;;;;;;5.25;3.83;;;;;;;;;;5029957;28;20108;-69
2021/06/19 12:21:43;;;;;;;13.75;4.10;;;;;;;;;;5031313;28;20479;-70
2021/06/19 12:24:23;;;;;;;11.73;3.92;;;;;;;;;;5030957;28;20151;-72
2021/06/19 12:26:59;;;;;;;6.30;3.50;;;;;;;;;;5030260;28;20026;-67
2021/06/19 12:29:32;;;;;;;8.77;4.20;;;;;;;;;;5024430;28;20021;-69
2021/06/19 12:31:59;;;;;;;8.73;3.67;;;;;;;;;;5030791;28;20026;-69
2021/06/19 12:34:26;;;;;;;8.55;3.75;;;;;;;;;;5030941;28;20033;-65
2021/06/19 12:36:53;;;;;;;6.97;4.22;;;;;;;;;;5033135;28;20589;-66
2021/06/19 12:39:20;;;;;;;9.90;4.20;;;;;;;;;;5032226;28;20435;-71
2021/06/19 12:41:46;;;;;;;18.92;4.53;;;;;;;;;;5034461;28;20025;-69
2021/06/19 12:44:13;;;;;;;7.40;3.80;;;;;;;;;;5034546;28;20046;-70
2021/06/19 12:46:39;;;;;;;6.40;3.83;;;;;;;;;;5034437;28;20101;-72
2021/06/19 12:49:06;;;;;;;8.98;3.85;;;;;;;;;;5033589;28;20080;-69
2021/06/19 12:51:36;;;;;;;7.60;3.97;;;;;;;;;;5034678;28;20467;-68
2021/06/19 12:54:18;;;;;;;5.68;3.58;;;;;;;;;;5033943;28;20021;-74
2021/06/19 12:57:07;;;;;;;7.37;4.33;;;;;;;;;;5031695;28;20125;-66
2021/06/19 12:59:34;;;;;;;11.63;4.22;;;;;;;;;;5034660;28;20065;-70
2021/06/19 13:02:01;;;;;;;10.10;3.95;;;;;;;;;;5034477;28;20100;-68
2021/06/19 13:04:28;;;;;;;13.98;4.07;;;;;;;;;;5034243;28;20029;-72
2021/06/19 13:07:02;;;;;;;9.75;3.80;;;;;;;;;;5034140;28;20430;-75
2021/06/19 13:09:45;;;;;;;6.95;3.80;;;;;;;;;;5028252;28;20025;-73
2021/06/19 13:12:12;;;;;;;4.95;3.83;;;;;;;;;;5033415;28;20068;-67
2021/06/19 13:14:38;;;;;;;8.38;3.70;;;;;;;;;;5033662;28;20029;-66
2021/06/19 13:17:24;;;;;;;9.68;3.78;;;;;;;;;;5033862;28;20040;-70
2021/06/19 13:19:50;;;;;;;7.90;3.85;;;;;;;;;;5033611;28;20033;-69
2021/06/19 13:22:23;;;;;;;10.75;3.90;;;;;;;;;;5031857;28;20025;-65
2021/06/19 13:24:49;;;;;;;;;;;;;;;;;;5034689;28;20029;-70
2021/06/19 13:27:19;;;;;;;7.60;3.63;;;;;;;;;;5032857;28;19909;-74
2021/06/19 13:30:05;;;;;;;11.38;4.28;;;;;;;;;;5033828;28;20087;-70
2021/06/19 13:32:32;;;;;;;10.43;4.35;;;;;;;;;;5033951;28;20113;-68
2021/06/19 13:35:01;;;;;;;11.07;4.22;;;;;;;;;;5033416;28;20029;-69
2021/06/19 13:37:34;;;;;;;6.40;3.63;;;;;;;;;;5032968;28;20092;-69
2021/06/19 13:40:03;;;;;;;8.70;3.53;;;;;;;;;;5030183;28;20482;-70
2021/06/19 13:42:30;;;;;;;7.95;3.67;;;;;;;;;;5033675;28;20068;-69
2021/06/19 13:44:58;;;;;;;8.43;3.63;;;;;;;;;;5032791;28;20038;-70
2021/06/19 13:47:24;;;;;;;5.53;4.00;;;;;;;;;;5032351;28;20121;-72
2021/06/19 13:49:50;;;;;;;5.38;3.58;;;;;;;;;;5033274;28;20029;-66
2021/06/19 13:52:16;;;;;;;5.43;3.58;;;;;;;;;;5033580;28;20029;-72
2021/06/19 13:54:43;;;;;;;13.27;3.95;;;;;;;;;;5033579;28;20022;-67
2021/06/19 13:57:12;;;;;;;7.40;3.70;;;;;;;;;;5032294;28;20034;-67
2021/06/19 13:59:38;;;;;;;7.65;3.60;;;;;;;;;;5029204;28;20442;-71
2021/06/19 14:02:05;;;;;;;7.13;3.72;;;;;;;;;;5032879;28;20167;-75
2021/06/19 14:04:32;;;;;;;9.35;3.50;;;;;;;;;;5033263;28;20029;-68
2021/06/19 14:06:58;;;;;;;15.27;3.83;;;;;;;;;;5032658;28;20483;-66
2021/06/19 14:09:24;;;;;;;11.63;3.97;;;;;;;;;;5032480;28;20029;-70
2021/06/19 14:11:51;;;;;;;9.48;3.83;;;;;;;;;;5032650;28;20025;-65
2021/06/19 14:14:17;;;;;;;10.50;4.28;;;;;;;;;;5031938;28;20569;-73
2021/06/19 14:16:43;;;;;;;11.75;3.78;;;;;;;;;;5033150;28;20391;-71
2021/06/19 14:19:09;;;;;;;6.43;3.50;;;;;;;;;;5032256;28;20091;-67
2021/06/19 14:21:35;;;;;;;6.30;3.58;;;;;;;;;;5028939;28;20112;-74
2021/06/19 14:24:03;;;;;;;6.43;3.40;;;;;;;;;;5031774;28;20029;-71
2021/06/19 14:26:34;;;;;;;5.53;3.38;;;;;;;;;;5033063;28;20467;-68
2021/06/19 14:29:00;;;;;;;7.28;3.45;;;;;;;;;;5029645;28;20032;-70
2021/06/19 14:31:26;;;;;;;6.60;3.47;;;;;;;;;;5032020;28;20025;-69
2021/06/19 14:33:53;;;;;;;16.83;4.07;;;;;;;;;;5029467;28;20024;-70
2021/06/19 14:36:19;;;;;;;7.63;3.53;;;;;;;;;;5018987;28;20076;-68
2021/06/19 14:38:46;;;;;;;6.55;3.40;;;;;;;;;;5029776;28;20108;-71
2021/06/19 14:41:12;;;;;;;4.75;3.40;;;;;;;;;;5031789;28;20033;-67
2021/06/19 14:43:38;;;;;;;8.52;3.50;;;;;;;;;;5031735;28;20493;-68